sensor_id;sensor_type;location;lat;lon;timestamp;temperature;humidity
18868;DHT22;9563;49.240;9.088;2023-04-24T05:01:07;9.40;99.90
18868;DHT22;9563;49.240;9.088;2023-04-24T05:03:35;9.40;99.90
18868;DHT22;9563;49.240;9.088;2023-04-24T05:06:02;9.30;99.90
18868;DHT22;9563;49.240;9.088;2023-04-24T05:08:28;9.30;99.90
18868;DHT22;9563;49.240;9.088;2023-04-24T05:10:55;9.30;99.90
18868;DHT22;9563;49.240;9.088;2023-04-24T05:13:22;9.30;99.90
18868;DHT22;9563;49.240;9.088;2023-04-24T05:15:49;9.20;99.90
18868;DHT22;9563;49.240;9.088;2023-04-24T05:18:18;9.20;99.90
18868;DHT22;9563;49.240;9.088;2023-04-24T05:20:44;9.10;99.90
18868;DHT22;9563;49.240;9.088;2023-04-24T05:23:11;9.10;99.90
18868;DHT22;9563;49.240;9.088;2023-04-24T05:25:38;9.10;99.90
18868;DHT22;9563;49.240;9.088;2023-04-24T05:28:05;9.10;99.90
18868;DHT22;9563;49.240;9.088;2023-04-24T05:30:32;9.10;99.90
18868;DHT22;9563;49.240;9.088;2023-04-24T05:32:59;9.10;99.90
18868;DHT22;9563;49.240;9.088;2023-04-24T05:35:27;9.10;99.90
18868;DHT22;9563;49.240;9.088;2023-04-24T05:37:54;9.20;99.90
18868;DHT22;9563;49.240;9.088;2023-04-24T05:40:21;9.20;99.90
18868;DHT22;9563;49.240;9.088;2023-04-24T05:42:48;9.30;99.90
18868;DHT22;9563;49.240;9.088;2023-04-24T05:45:15;9.30;99.90
18868;DHT22;9563;49.240;9.088;2023-04-24T05:47:42;9.30;99.90
18868;DHT22;9563;49.240;9.088;2023-04-24T05:50:09;9.40;99.90
18868;DHT22;9563;49.240;9.088;2023-04-24T05:52:38;9.50;99.90
18868;DHT22;9563;49.240;9.088;2023-04-24T05:55:05;9.60;99.90
18868;DHT22;9563;49.240;9.088;2023-04-24T05:57:33;9.70;99.90
18868;DHT22;9563;49.240;9.088;2023-04-24T05:59:59;9.70;99.90
18868;DHT22;9563;49.240;9.088;2023-04-24T06:02:26;9.80;99.90
18868;DHT22;9563;49.240;9.088;2023-04-24T06:04:57;9.80;99.90
18868;DHT22;9563;49.240;9.088;2023-04-24T06:07:24;9.90;99.90
18868;DHT22;9563;49.240;9.088;2023-04-24T06:09:53;9.80;99.90
18868;DHT22;9563;49.240;9.088;2023-04-24T06:12:20;9.90;99.90
18868;DHT22;9563;49.240;9.088;2023-04-24T06:14:46;9.90;99.90
18868;DHT22;9563;49.240;9.088;2023-04-24T06:17:13;10.00;99.90
18868;DHT22;9563;49.240;9.088;2023-04-24T06:19:40;10.00;99.90
18868;DHT22;9563;49.240;9.088;2023-04-24T06:22:07;10.10;99.90
18868;DHT22;9563;49.240;9.088;2023-04-24T06:24:34;10.10;99.90
18868;DHT22;9563;49.240;9.088;2023-04-24T06:27:02;10.20;99.90
18868;DHT22;9563;49.240;9.088;2023-04-24T06:29:29;10.30;99.90
18868;DHT22;9563;49.240;9.088;2023-04-24T06:31:56;10.30;99.90
18868;DHT22;9563;49.240;9.088;2023-04-24T06:34:23;10.40;99.90
18868;DHT22;9563;49.240;9.088;2023-04-24T06:36:50;10.40;99.90
18868;DHT22;9563;49.240;9.088;2023-04-24T06:39:17;10.40;99.90
18868;DHT22;9563;49.240;9.088;2023-04-24T06:41:44;10.50;99.90
18868;DHT22;9563;49.240;9.088;2023-04-24T06:44:12;10.60;99.90
18868;DHT22;9563;49.240;9.088;2023-04-24T06:46:40;10.60;99.90
18868;DHT22;9563;49.240;9.088;2023-04-24T06:49:07;10.70;99.90
18868;DHT22;9563;49.240;9.088;2023-04-24T06:51:33;10.90;99.90
18868;DHT22;9563;49.240;9.088;2023-04-24T06:54:00;11.00;99.90
18868;DHT22;9563;49.240;9.088;2023-04-24T06:56:27;10.90;99.90
18868;DHT22;9563;49.240;9.088;2023-04-24T06:58:54;10.80;99.90
18868;DHT22;9563;49.240;9.088;2023-04-24T07:01:22;10.70;99.90
18868;DHT22;9563;49.240;9.088;2023-04-24T07:03:49;10.60;99.90
18868;DHT22;9563;49.240;9.088;2023-04-24T07:06:16;10.50;99.90
18868;DHT22;9563;49.240;9.088;2023-04-24T07:08:44;10.60;99.90
18868;DHT22;9563;49.240;9.088;2023-04-24T07:11:10;10.70;99.90
18868;DHT22;9563;49.240;9.088;2023-04-24T07:13:37;10.70;99.90
18868;DHT22;9563;49.240;9.088;2023-04-24T07:16:07;10.70;99.90
18868;DHT22;9563;49.240;9.088;2023-04-24T07:18:35;10.70;99.90
18868;DHT22;9563;49.240;9.088;2023-04-24T07:21:03;11.00;99.90
18868;DHT22;9563;49.240;9.088;2023-04-24T07:23:30;11.10;99.90
18868;DHT22;9563;49.240;9.088;2023-04-24T07:25:57;11.20;99.90
18868;DHT22;9563;49.240;9.088;2023-04-24T07:28:24;11.30;99.90
18868;DHT22;9563;49.240;9.088;2023-04-24T07:30:51;11.00;99.90
18868;DHT22;9563;49.240;9.088;2023-04-24T07:33:19;11.00;99.90
18868;DHT22;9563;49.240;9.088;2023-04-24T07:35:47;11.20;99.90
18868;DHT22;9563;49.240;9.088;2023-04-24T07:38:14;11.30;99.90
18868;DHT22;9563;49.240;9.088;2023-04-24T07:40:41;11.30;99.90
18868;DHT22;9563;49.240;9.088;2023-04-24T07:43:08;11.30;99.90
18868;DHT22;9563;49.240;9.088;2023-04-24T07:45:35;11.40;99.90
18868;DHT22;9563;49.240;9.088;2023-04-24T07:48:03;11.40;99.90
18868;DHT22;9563;49.240;9.088;2023-04-24T07:50:30;11.10;99.90
18868;DHT22;9563;49.240;9.088;2023-04-24T07:52:58;11.10;99.90
18868;DHT22;9563;49.240;9.088;2023-04-24T07:55:25;11.10;99.90
18868;DHT22;9563;49.240;9.088;2023-04-24T07:57:52;11.10;99.90
18868;DHT22;9563;49.240;9.088;2023-04-24T08:00:19;11.10;99.90
18868;DHT22;9563;49.240;9.088;2023-04-24T08:02:46;11.00;99.90
18868;DHT22;9563;49.240;9.088;2023-04-24T08:05:13;11.00;99.90
18868;DHT22;9563;49.240;9.088;2023-04-24T08:07:40;11.00;99.90
18868;DHT22;9563;49.240;9.088;2023-04-24T08:10:10;11.10;99.90
18868;DHT22;9563;49.240;9.088;2023-04-24T08:12:37;11.10;99.90
18868;DHT22;9563;49.240;9.088;2023-04-24T08:15:05;11.10;99.90
18868;DHT22;9563;49.240;9.088;2023-04-24T08:17:32;11.10;99.90
18868;DHT22;9563;49.240;9.088;2023-04-24T08:19:59;11.00;99.90
18868;DHT22;9563;49.240;9.088;2023-04-24T08:22:26;11.00;99.90
18868;DHT22;9563;49.240;9.088;2023-04-24T08:24:54;10.70;99.90
18868;DHT22;9563;49.240;9.088;2023-04-24T08:27:23;10.60;99.90
18868;DHT22;9563;49.240;9.088;2023-04-24T08:29:50;10.50;99.90
18868;DHT22;9563;49.240;9.088;2023-04-24T08:32:17;10.40;99.90
18868;DHT22;9563;49.240;9.088;2023-04-24T08:34:43;10.30;99.90
18868;DHT22;9563;49.240;9.088;2023-04-24T08:37:10;10.00;99.90
18868;DHT22;9563;49.240;9.088;2023-04-24T08:39:38;10.00;99.90
18868;DHT22;9563;49.240;9.088;2023-04-24T08:42:05;10.00;99.90
18868;DHT22;9563;49.240;9.088;2023-04-24T08:44:35;10.10;99.90
18868;DHT22;9563;49.240;9.088;2023-04-24T08:47:03;10.20;99.90
18868;DHT22;9563;49.240;9.088;2023-04-24T08:49:30;10.50;99.90
18868;DHT22;9563;49.240;9.088;2023-04-24T08:51:57;10.90;99.90
18868;DHT22;9563;49.240;9.088;2023-04-24T08:54:25;11.20;99.90
18868;DHT22;9563;49.240;9.088;2023-04-24T08:56:53;11.60;99.90
18868;DHT22;9563;49.240;9.088;2023-04-24T08:59:23;12.00;99.90
18868;DHT22;9563;49.240;9.088;2023-04-24T09:01:51;12.40;99.90
18868;DHT22;9563;49.240;9.088;2023-04-24T09:04:20;12.60;99.90
18868;DHT22;9563;49.240;9.088;2023-04-24T09:06:48;12.50;99.90
18868;DHT22;9563;49.240;9.088;2023-04-24T09:09:16;12.10;99.90
18868;DHT22;9563;49.240;9.088;2023-04-24T09:11:43;11.90;99.90
18868;DHT22;9563;49.240;9.088;2023-04-24T09:14:11;12.10;99.90
18868;DHT22;9563;49.240;9.088;2023-04-24T09:16:38;12.10;99.90
18868;DHT22;9563;49.240;9.088;2023-04-24T09:19:07;12.00;99.90
18868;DHT22;9563;49.240;9.088;2023-04-24T09:21:35;11.80;99.90
18868;DHT22;9563;49.240;9.088;2023-04-24T09:24:05;11.50;99.90
18868;DHT22;9563;49.240;9.088;2023-04-24T09:26:34;11.30;99.90
18868;DHT22;9563;49.240;9.088;2023-04-24T09:29:02;11.10;99.90
18868;DHT22;9563;49.240;9.088;2023-04-24T09:31:30;11.00;99.90
18868;DHT22;9563;49.240;9.088;2023-04-24T09:33:58;10.90;99.90
18868;DHT22;9563;49.240;9.088;2023-04-24T09:36:31;10.90;99.90
18868;DHT22;9563;49.240;9.088;2023-04-24T09:39:00;11.10;99.90
18868;DHT22;9563;49.240;9.088;2023-04-24T09:41:28;11.30;99.90
18868;DHT22;9563;49.240;9.088;2023-04-24T09:43:56;11.60;99.90
18868;DHT22;9563;49.240;9.088;2023-04-24T09:46:29;12.30;99.90
18868;DHT22;9563;49.240;9.088;2023-04-24T09:48:57;12.70;99.90
18868;DHT22;9563;49.240;9.088;2023-04-24T09:51:36;13.20;99.90
18868;DHT22;9563;49.240;9.088;2023-04-24T09:54:03;12.60;99.90
18868;DHT22;9563;49.240;9.088;2023-04-24T09:56:32;12.20;99.90
18868;DHT22;9563;49.240;9.088;2023-04-24T09:59:06;11.90;99.90
18868;DHT22;9563;49.240;9.088;2023-04-24T10:01:33;11.60;99.90
18868;DHT22;9563;49.240;9.088;2023-04-24T10:04:00;11.40;99.90
18868;DHT22;9563;49.240;9.088;2023-04-24T10:06:33;11.30;99.90
18868;DHT22;9563;49.240;9.088;2023-04-24T10:09:02;11.30;99.90
18868;DHT22;9563;49.240;9.088;2023-04-24T10:11:29;11.20;99.90
18868;DHT22;9563;49.240;9.088;2023-04-24T10:13:57;11.10;99.90
18868;DHT22;9563;49.240;9.088;2023-04-24T10:16:25;11.20;99.90
18868;DHT22;9563;49.240;9.088;2023-04-24T10:18:54;11.20;99.90
18868;DHT22;9563;49.240;9.088;2023-04-24T10:21:22;10.90;99.90
18868;DHT22;9563;49.240;9.088;2023-04-24T10:23:50;10.80;99.90
18868;DHT22;9563;49.240;9.088;2023-04-24T10:26:19;10.70;99.90
18868;DHT22;9563;49.240;9.088;2023-04-24T10:28:47;10.70;99.90
18868;DHT22;9563;49.240;9.088;2023-04-24T10:31:14;11.10;99.90
18868;DHT22;9563;49.240;9.088;2023-04-24T10:33:42;11.60;99.90
18868;DHT22;9563;49.240;9.088;2023-04-24T10:36:10;12.20;99.90
18868;DHT22;9563;49.240;9.088;2023-04-24T10:38:40;12.60;99.90
18868;DHT22;9563;49.240;9.088;2023-04-24T10:41:09;13.00;99.90
18868;DHT22;9563;49.240;9.088;2023-04-24T10:43:46;13.40;99.90
18868;DHT22;9563;49.240;9.088;2023-04-24T10:46:19;13.60;99.90
18868;DHT22;9563;49.240;9.088;2023-04-24T10:48:52;13.60;99.90
18868;DHT22;9563;49.240;9.088;2023-04-24T10:51:22;13.60;99.90
18868;DHT22;9563;49.240;9.088;2023-04-24T10:53:50;13.30;99.90
18868;DHT22;9563;49.240;9.088;2023-04-24T10:56:17;12.90;99.90
18868;DHT22;9563;49.240;9.088;2023-04-24T10:58:49;12.70;99.90
18868;DHT22;9563;49.240;9.088;2023-04-24T11:01:24;12.70;99.90
18868;DHT22;9563;49.240;9.088;2023-04-24T11:03:56;12.90;99.90
18868;DHT22;9563;49.240;9.088;2023-04-24T11:06:29;12.70;99.90
18868;DHT22;9563;49.240;9.088;2023-04-24T11:09:02;12.30;99.90
18868;DHT22;9563;49.240;9.088;2023-04-24T11:11:31;11.70;99.90
18868;DHT22;9563;49.240;9.088;2023-04-24T11:14:06;11.40;99.90
18868;DHT22;9563;49.240;9.088;2023-04-24T11:16:36;11.20;99.90
18868;DHT22;9563;49.240;9.088;2023-04-24T11:19:06;10.90;99.90
18868;DHT22;9563;49.240;9.088;2023-04-24T11:21:41;11.00;99.90
18868;DHT22;9563;49.240;9.088;2023-04-24T11:24:25;11.00;99.90
18868;DHT22;9563;49.240;9.088;2023-04-24T11:26:54;10.70;99.90
18868;DHT22;9563;49.240;9.088;2023-04-24T11:29:38;10.60;99.90
18868;DHT22;9563;49.240;9.088;2023-04-24T11:32:15;10.90;99.90
18868;DHT22;9563;49.240;9.088;2023-04-24T11:34:46;11.50;99.90
18868;DHT22;9563;49.240;9.088;2023-04-24T11:37:13;12.10;99.90
18868;DHT22;9563;49.240;9.088;2023-04-24T11:39:40;12.60;99.90
18868;DHT22;9563;49.240;9.088;2023-04-24T11:42:07;12.80;99.90
18868;DHT22;9563;49.240;9.088;2023-04-24T11:44:36;13.20;99.90
18868;DHT22;9563;49.240;9.088;2023-04-24T11:47:04;13.10;99.90
18868;DHT22;9563;49.240;9.088;2023-04-24T11:49:31;13.10;99.90
18868;DHT22;9563;49.240;9.088;2023-04-24T11:51:59;13.30;99.90
18868;DHT22;9563;49.240;9.088;2023-04-24T11:54:26;13.40;99.90
18868;DHT22;9563;49.240;9.088;2023-04-24T11:56:52;13.70;99.90
18868;DHT22;9563;49.240;9.088;2023-04-24T11:59:19;14.20;99.90
18868;DHT22;9563;49.240;9.088;2023-04-24T12:01:48;14.20;99.90
18868;DHT22;9563;49.240;9.088;2023-04-24T12:04:17;13.60;99.90
18868;DHT22;9563;49.240;9.088;2023-04-24T12:06:58;12.70;99.90
18868;DHT22;9563;49.240;9.088;2023-04-24T12:09:25;12.20;99.90
18868;DHT22;9563;49.240;9.088;2023-04-24T12:11:53;11.80;99.90
18868;DHT22;9563;49.240;9.088;2023-04-24T12:14:21;11.60;99.90
18868;DHT22;9563;49.240;9.088;2023-04-24T12:16:49;11.70;99.90
18868;DHT22;9563;49.240;9.088;2023-04-24T12:19:18;11.40;99.90
18868;DHT22;9563;49.240;9.088;2023-04-24T12:21:59;11.40;99.90
18868;DHT22;9563;49.240;9.088;2023-04-24T12:24:26;11.30;99.90
18868;DHT22;9563;49.240;9.088;2023-04-24T12:26:53;11.10;99.90
18868;DHT22;9563;49.240;9.088;2023-04-24T12:29:20;11.20;99.90
18868;DHT22;9563;49.240;9.088;2023-04-24T12:31:49;11.60;99.90
18868;DHT22;9563;49.240;9.088;2023-04-24T12:34:19;11.90;99.90
18868;DHT22;9563;49.240;9.088;2023-04-24T12:36:46;12.20;99.90
18868;DHT22;9563;49.240;9.088;2023-04-24T12:39:16;12.20;99.90
18868;DHT22;9563;49.240;9.088;2023-04-24T12:41:56;12.20;99.90
18868;DHT22;9563;49.240;9.088;2023-04-24T12:44:30;11.90;99.90
18868;DHT22;9563;49.240;9.088;2023-04-24T12:46:59;11.70;99.90
18868;DHT22;9563;49.240;9.088;2023-04-24T12:49:25;11.80;99.90
18868;DHT22;9563;49.240;9.088;2023-04-24T12:51:53;11.80;99.90
18868;DHT22;9563;49.240;9.088;2023-04-24T12:54:20;11.90;99.90
18868;DHT22;9563;49.240;9.088;2023-04-24T12:56:47;12.10;99.90
18868;DHT22;9563;49.240;9.088;2023-04-24T12:59:14;12.30;99.90
18868;DHT22;9563;49.240;9.088;2023-04-24T13:01:41;12.40;99.90
18868;DHT22;9563;49.240;9.088;2023-04-24T13:04:10;12.20;99.90
18868;DHT22;9563;49.240;9.088;2023-04-24T13:06:37;12.10;99.90
18868;DHT22;9563;49.240;9.088;2023-04-24T13:09:03;11.90;99.90
18868;DHT22;9563;49.240;9.088;2023-04-24T13:11:30;11.90;99.90
18868;DHT22;9563;49.240;9.088;2023-04-24T13:13:57;11.70;99.90
18868;DHT22;9563;49.240;9.088;2023-04-24T13:16:24;11.70;99.90
18868;DHT22;9563;49.240;9.088;2023-04-24T13:18:51;11.70;99.90
18868;DHT22;9563;49.240;9.088;2023-04-24T13:21:19;11.70;99.90
18868;DHT22;9563;49.240;9.088;2023-04-24T13:23:46;11.60;99.90
18868;DHT22;9563;49.240;9.088;2023-04-24T13:26:12;11.60;99.90
18868;DHT22;9563;49.240;9.088;2023-04-24T13:28:39;11.40;99.90
18868;DHT22;9563;49.240;9.088;2023-04-24T13:31:06;11.40;99.90
18868;DHT22;9563;49.240;9.088;2023-04-24T13:33:33;11.50;99.90
18868;DHT22;9563;49.240;9.088;2023-04-24T13:36:00;12.10;99.90
18868;DHT22;9563;49.240;9.088;2023-04-24T13:38:29;12.60;99.90
18868;DHT22;9563;49.240;9.088;2023-04-24T13:40:55;12.90;99.90
18868;DHT22;9563;49.240;9.088;2023-04-24T13:43:22;13.00;99.90
18868;DHT22;9563;49.240;9.088;2023-04-24T13:45:49;13.30;99.90
18868;DHT22;9563;49.240;9.088;2023-04-24T13:48:16;13.30;99.90
18868;DHT22;9563;49.240;9.088;2023-04-24T13:50:43;13.60;99.90
18868;DHT22;9563;49.240;9.088;2023-04-24T13:53:13;13.60;99.90
18868;DHT22;9563;49.240;9.088;2023-04-24T13:55:41;13.80;99.90
18868;DHT22;9563;49.240;9.088;2023-04-24T13:58:08;13.80;99.90
18868;DHT22;9563;49.240;9.088;2023-04-24T14:00:36;13.70;99.90
18868;DHT22;9563;49.240;9.088;2023-04-24T14:03:03;13.90;99.90
18868;DHT22;9563;49.240;9.088;2023-04-24T14:05:30;14.00;99.90
18868;DHT22;9563;49.240;9.088;2023-04-24T14:07:57;14.10;99.90
18868;DHT22;9563;49.240;9.088;2023-04-24T14:10:24;14.50;99.90
18868;DHT22;9563;49.240;9.088;2023-04-24T14:12:54;14.10;99.90
18868;DHT22;9563;49.240;9.088;2023-04-24T14:15:21;14.10;99.90
18868;DHT22;9563;49.240;9.088;2023-04-24T14:17:48;14.10;99.90
18868;DHT22;9563;49.240;9.088;2023-04-24T14:20:15;14.10;99.90
18868;DHT22;9563;49.240;9.088;2023-04-24T14:22:42;14.20;99.90
18868;DHT22;9563;49.240;9.088;2023-04-24T14:25:09;14.00;99.90
18868;DHT22;9563;49.240;9.088;2023-04-24T14:27:36;13.70;99.90
18868;DHT22;9563;49.240;9.088;2023-04-24T14:30:05;13.30;99.90
18868;DHT22;9563;49.240;9.088;2023-04-24T14:32:33;13.00;99.90
18868;DHT22;9563;49.240;9.088;2023-04-24T14:35:00;12.80;99.90
18868;DHT22;9563;49.240;9.088;2023-04-24T14:37:27;12.60;99.90
18868;DHT22;9563;49.240;9.088;2023-04-24T14:39:53;12.50;99.90
18868;DHT22;9563;49.240;9.088;2023-04-24T14:42:20;12.30;99.90
18868;DHT22;9563;49.240;9.088;2023-04-24T14:44:47;12.40;99.90
18868;DHT22;9563;49.240;9.088;2023-04-24T14:47:15;12.30;99.90
18868;DHT22;9563;49.240;9.088;2023-04-24T14:49:42;12.30;99.90
18868;DHT22;9563;49.240;9.088;2023-04-24T14:52:10;12.30;99.90
18868;DHT22;9563;49.240;9.088;2023-04-24T14:54:37;12.30;99.90
18868;DHT22;9563;49.240;9.088;2023-04-24T14:57:03;12.10;99.90
18868;DHT22;9563;49.240;9.088;2023-04-24T14:59:31;12.20;99.90
18868;DHT22;9563;49.240;9.088;2023-04-24T15:01:58;12.10;99.90
18868;DHT22;9563;49.240;9.088;2023-04-24T15:04:26;12.10;99.90
18868;DHT22;9563;49.240;9.088;2023-04-24T15:06:54;12.10;99.90
18868;DHT22;9563;49.240;9.088;2023-04-24T15:09:21;12.10;99.90
18868;DHT22;9563;49.240;9.088;2023-04-24T15:11:49;12.20;99.90
18868;DHT22;9563;49.240;9.088;2023-04-24T15:14:17;12.20;99.90
18868;DHT22;9563;49.240;9.088;2023-04-24T15:16:44;12.10;99.90
18868;DHT22;9563;49.240;9.088;2023-04-24T15:19:11;12.10;99.90
18868;DHT22;9563;49.240;9.088;2023-04-24T15:21:39;12.20;99.90
18868;DHT22;9563;49.240;9.088;2023-04-24T15:24:08;12.10;99.90
18868;DHT22;9563;49.240;9.088;2023-04-24T15:26:35;12.10;99.90
18868;DHT22;9563;49.240;9.088;2023-04-24T15:29:02;12.10;99.90
18868;DHT22;9563;49.240;9.088;2023-04-24T15:31:29;12.10;99.90
18868;DHT22;9563;49.240;9.088;2023-04-24T15:33:56;12.00;99.90
18868;DHT22;9563;49.240;9.088;2023-04-24T15:36:23;12.00;99.90
18868;DHT22;9563;49.240;9.088;2023-04-24T15:38:51;11.90;99.90
18868;DHT22;9563;49.240;9.088;2023-04-24T15:41:18;11.90;99.90
18868;DHT22;9563;49.240;9.088;2023-04-24T15:43:45;11.90;99.90
18868;DHT22;9563;49.240;9.088;2023-04-24T15:46:12;12.00;99.90
18868;DHT22;9563;49.240;9.088;2023-04-24T15:48:39;12.00;99.90
18868;DHT22;9563;49.240;9.088;2023-04-24T15:51:08;12.20;99.90
18868;DHT22;9563;49.240;9.088;2023-04-24T15:53:34;12.30;99.90
18868;DHT22;9563;49.240;9.088;2023-04-24T15:56:03;12.30;99.90
18868;DHT22;9563;49.240;9.088;2023-04-24T15:58:30;12.30;99.90
18868;DHT22;9563;49.240;9.088;2023-04-24T16:00:57;12.30;99.90
18868;DHT22;9563;49.240;9.088;2023-04-24T16:03:24;12.20;99.90
18868;DHT22;9563;49.240;9.088;2023-04-24T16:05:51;12.20;99.90
18868;DHT22;9563;49.240;9.088;2023-04-24T16:08:18;12.10;99.90
18868;DHT22;9563;49.240;9.088;2023-04-24T16:10:46;12.20;99.90
18868;DHT22;9563;49.240;9.088;2023-04-24T16:13:15;12.10;99.90
18868;DHT22;9563;49.240;9.088;2023-04-24T16:15:43;12.10;99.90
18868;DHT22;9563;49.240;9.088;2023-04-24T16:18:09;12.10;99.90
18868;DHT22;9563;49.240;9.088;2023-04-24T16:20:36;12.20;99.90
18868;DHT22;9563;49.240;9.088;2023-04-24T16:23:03;12.30;99.90
18868;DHT22;9563;49.240;9.088;2023-04-24T16:25:31;12.50;99.90
18868;DHT22;9563;49.240;9.088;2023-04-24T16:27:58;12.60;99.90
18868;DHT22;9563;49.240;9.088;2023-04-24T16:30:26;12.50;99.90
18868;DHT22;9563;49.240;9.088;2023-04-24T16:32:53;12.50;99.90
18868;DHT22;9563;49.240;9.088;2023-04-24T16:35:20;12.40;99.90
18868;DHT22;9563;49.240;9.088;2023-04-24T16:37:47;12.40;99.90
18868;DHT22;9563;49.240;9.088;2023-04-24T16:40:13;12.20;99.90
18868;DHT22;9563;49.240;9.088;2023-04-24T16:42:40;12.10;99.90
18868;DHT22;9563;49.240;9.088;2023-04-24T16:45:08;12.00;99.90
18868;DHT22;9563;49.240;9.088;2023-04-24T16:47:36;12.00;99.90
18868;DHT22;9563;49.240;9.088;2023-04-24T16:50:04;11.70;99.90
18868;DHT22;9563;49.240;9.088;2023-04-24T16:52:31;11.30;99.90
18868;DHT22;9563;49.240;9.088;2023-04-24T16:54:58;11.00;99.90
18868;DHT22;9563;49.240;9.088;2023-04-24T16:57:25;10.80;99.90
18868;DHT22;9563;49.240;9.088;2023-04-24T16:59:51;10.60;99.90
18868;DHT22;9563;49.240;9.088;2023-04-24T17:02:18;10.60;99.90
18868;DHT22;9563;49.240;9.088;2023-04-24T17:04:46;10.60;99.90
18868;DHT22;9563;49.240;9.088;2023-04-24T17:07:13;10.70;99.90
18868;DHT22;9563;49.240;9.088;2023-04-24T17:09:42;10.70;99.90
18868;DHT22;9563;49.240;9.088;2023-04-24T17:12:08;10.80;99.90
18868;DHT22;9563;49.240;9.088;2023-04-24T17:14:35;10.80;99.90
18868;DHT22;9563;49.240;9.088;2023-04-24T17:17:02;10.80;99.90
18868;DHT22;9563;49.240;9.088;2023-04-24T17:19:29;10.60;99.90
18868;DHT22;9563;49.240;9.088;2023-04-24T17:21:57;10.50;99.90
18868;DHT22;9563;49.240;9.088;2023-04-24T17:24:24;10.40;99.90
18868;DHT22;9563;49.240;9.088;2023-04-24T17:26:51;10.50;99.90
18868;DHT22;9563;49.240;9.088;2023-04-24T17:29:18;10.30;99.90
18868;DHT22;9563;49.240;9.088;2023-04-24T17:31:44;10.20;99.90
18868;DHT22;9563;49.240;9.088;2023-04-24T17:34:12;10.20;99.90
18868;DHT22;9563;49.240;9.088;2023-04-24T17:36:38;10.10;99.90
18868;DHT22;9563;49.240;9.088;2023-04-24T17:39:07;10.20;99.90
18868;DHT22;9563;49.240;9.088;2023-04-24T17:41:34;10.20;99.90
18868;DHT22;9563;49.240;9.088;2023-04-24T17:44:01;10.20;99.90
18868;DHT22;9563;49.240;9.088;2023-04-24T17:46:28;10.20;99.90
18868;DHT22;9563;49.240;9.088;2023-04-24T17:48:55;10.20;99.90
18868;DHT22;9563;49.240;9.088;2023-04-24T17:51:22;10.20;99.90
18868;DHT22;9563;49.240;9.088;2023-04-24T17:53:49;10.10;99.90
18868;DHT22;9563;49.240;9.088;2023-04-24T17:56:18;10.10;99.90
18868;DHT22;9563;49.240;9.088;2023-04-24T17:58:45;10.10;99.90
18868;DHT22;9563;49.240;9.088;2023-04-24T18:01:12;10.00;99.90
18868;DHT22;9563;49.240;9.088;2023-04-24T18:03:38;10.00;99.90
18868;DHT22;9563;49.240;9.088;2023-04-24T18:06:08;9.90;99.90
18868;DHT22;9563;49.240;9.088;2023-04-24T18:08:35;9.70;99.90
18868;DHT22;9563;49.240;9.088;2023-04-24T18:11:02;9.70;99.90
18868;DHT22;9563;49.240;9.088;2023-04-24T18:13:30;9.50;99.90
18868;DHT22;9563;49.240;9.088;2023-04-24T18:15:57;9.40;99.90
18868;DHT22;9563;49.240;9.088;2023-04-24T18:18:24;9.30;99.90
18868;DHT22;9563;49.240;9.088;2023-04-24T18:20:51;9.20;99.90
18868;DHT22;9563;49.240;9.088;2023-04-24T18:23:18;9.20;99.90
18868;DHT22;9563;49.240;9.088;2023-04-24T18:25:45;9.10;99.90
18868;DHT22;9563;49.240;9.088;2023-04-24T18:28:12;9.10;99.90
18868;DHT22;9563;49.240;9.088;2023-04-24T18:30:40;9.10;99.90
18868;DHT22;9563;49.240;9.088;2023-04-24T18:33:07;9.10;99.90
18868;DHT22;9563;49.240;9.088;2023-04-24T18:35:34;9.10;99.90
18868;DHT22;9563;49.240;9.088;2023-04-24T18:38:01;9.10;99.90
18868;DHT22;9563;49.240;9.088;2023-04-24T18:40:28;9.10;99.90
18868;DHT22;9563;49.240;9.088;2023-04-24T18:42:55;9.10;99.90
18868;DHT22;9563;49.240;9.088;2023-04-24T18:45:22;9.20;99.90
18868;DHT22;9563;49.240;9.088;2023-04-24T18:47:50;9.20;99.90
18868;DHT22;9563;49.240;9.088;2023-04-24T18:50:17;9.20;99.90
18868;DHT22;9563;49.240;9.088;2023-04-24T18:52:45;9.20;99.90
18868;DHT22;9563;49.240;9.088;2023-04-24T18:55:11;9.30;99.90
18868;DHT22;9563;49.240;9.088;2023-04-24T18:57:39;9.30;99.90
18868;DHT22;9563;49.240;9.088;2023-04-24T19:00:07;9.30;99.90
18868;DHT22;9563;49.240;9.088;2023-04-24T19:02:34;9.30;99.90
18868;DHT22;9563;49.240;9.088;2023-04-24T19:05:02;9.40;99.90
18868;DHT22;9563;49.240;9.088;2023-04-24T19:07:29;9.40;99.90
18868;DHT22;9563;49.240;9.088;2023-04-24T19:09:56;9.50;99.90
18868;DHT22;9563;49.240;9.088;2023-04-24T19:12:23;9.50;99.90
18868;DHT22;9563;49.240;9.088;2023-04-24T19:14:49;9.50;99.90
18868;DHT22;9563;49.240;9.088;2023-04-24T19:17:20;9.40;99.90
18868;DHT22;9563;49.240;9.088;2023-04-24T19:19:49;9.40;99.90
18868;DHT22;9563;49.240;9.088;2023-04-24T19:22:18;9.40;99.90
18868;DHT22;9563;49.240;9.088;2023-04-24T19:24:45;9.30;99.90
18868;DHT22;9563;49.240;9.088;2023-04-24T19:27:12;9.30;99.90
18868;DHT22;9563;49.240;9.088;2023-04-24T19:29:39;9.30;99.90
18868;DHT22;9563;49.240;9.088;2023-04-24T19:32:07;9.20;99.90
18868;DHT22;9563;49.240;9.088;2023-04-24T19:34:34;9.20;99.90
18868;DHT22;9563;49.240;9.088;2023-04-24T19:37:01;9.10;99.90
18868;DHT22;9563;49.240;9.088;2023-04-24T19:39:29;9.00;99.90
18868;DHT22;9563;49.240;9.088;2023-04-24T19:41:57;9.00;99.90
18868;DHT22;9563;49.240;9.088;2023-04-24T19:44:24;9.00;99.90
18868;DHT22;9563;49.240;9.088;2023-04-24T19:46:51;8.90;99.90
18868;DHT22;9563;49.240;9.088;2023-04-24T19:49:19;8.90;99.90
18868;DHT22;9563;49.240;9.088;2023-04-24T19:51:45;8.80;99.90
18868;DHT22;9563;49.240;9.088;2023-04-24T19:54:12;8.80;99.90
18868;DHT22;9563;49.240;9.088;2023-04-24T19:56:40;8.80;99.90
18868;DHT22;9563;49.240;9.088;2023-04-24T19:59:07;8.80;99.90
18868;DHT22;9563;49.240;9.088;2023-04-24T20:01:34;8.80;99.90
18868;DHT22;9563;49.240;9.088;2023-04-24T20:04:01;8.80;99.90
18868;DHT22;9563;49.240;9.088;2023-04-24T20:06:28;8.90;99.90
18868;DHT22;9563;49.240;9.088;2023-04-24T20:08:55;8.90;99.90
18868;DHT22;9563;49.240;9.088;2023-04-24T20:11:22;9.00;99.90
18868;DHT22;9563;49.240;9.088;2023-04-24T20:13:50;9.00;99.90
18868;DHT22;9563;49.240;9.088;2023-04-24T20:16:17;8.90;99.90
18868;DHT22;9563;49.240;9.088;2023-04-24T20:18:44;9.00;99.90
18868;DHT22;9563;49.240;9.088;2023-04-24T20:21:12;9.00;99.90
18868;DHT22;9563;49.240;9.088;2023-04-24T20:23:39;9.00;99.90
18868;DHT22;9563;49.240;9.088;2023-04-24T20:26:06;9.00;99.90
18868;DHT22;9563;49.240;9.088;2023-04-24T20:28:34;9.00;99.90
18868;DHT22;9563;49.240;9.088;2023-04-24T20:31:02;9.00;99.90
18868;DHT22;9563;49.240;9.088;2023-04-24T20:33:29;9.00;99.90
18868;DHT22;9563;49.240;9.088;2023-04-24T20:35:56;9.00;99.90
18868;DHT22;9563;49.240;9.088;2023-04-24T20:38:23;9.00;99.90
18868;DHT22;9563;49.240;9.088;2023-04-24T20:40:50;9.00;99.90
18868;DHT22;9563;49.240;9.088;2023-04-24T20:43:17;9.00;99.90
18868;DHT22;9563;49.240;9.088;2023-04-24T20:45:44;9.00;99.90
18868;DHT22;9563;49.240;9.088;2023-04-24T20:48:12;9.00;99.90
18868;DHT22;9563;49.240;9.088;2023-04-24T20:50:39;9.10;99.90
18868;DHT22;9563;49.240;9.088;2023-04-24T20:53:06;9.10;99.90